Flight Track Log - Related Links

Times and Time Zones

All times are in EDT time to prevent confusion due to time zone crossing. See the SKW7806 flight status page for this flight to view local times or setup timezone preferences in your user account.

Time Position Orientation Groundspeed Altitude Reporting Facility
EDT Latitude Longitude Course Direction KTS MPH feet Rate Location/Type
Sun 02:47:15 PM 44.6005 -108.9500 210° Southwest  Level FlightAware Approximate
Sun 02:48:15 PM 44.5197 -109.0346 38° Northeast  Level FlightAware Approximate
Sun 02:49:15 PM 44.4388 -109.1190 37° Northeast  Level FlightAware Approximate
Sun 02:50:27 PM 44.5869 -108.9608 149° Southeast 202 232 8,200  Level Salt Lake Center
Sun 02:51:29 PM 44.5258 -108.9086 208° Southwest 265 305 10,400 1,984 Climbing Salt Lake Center
Sun 02:52:31 PM 44.4522 -108.9644 220° Southwest 310 357 12,300 2,160 Climbing Salt Lake Center
Sun 02:53:34 PM 44.3708 -109.0608 222° Southwest 343 395 14,900 2,064 Climbing Salt Lake Center
Sun 02:54:36 PM 44.3003 -109.1506 228° Southwest 355 409 16,600 1,742 Climbing Salt Lake Center
Sun 02:55:38 PM 44.2225 -109.2697 230° Southwest 372 428 18,500 1,500 Climbing Salt Lake Center
Sun 02:56:40 PM 44.1586 -109.3772 219° Southwest 386 444 19,700 1,355 Climbing Salt Lake Center
Sun 02:57:42 PM 44.0658 -109.4819 220° Southwest 403 464 21,300 1,452 Climbing Salt Lake Center
Sun 02:58:44 PM 43.9836 -109.5778 220° Southwest 404 465 22,700 1,392 Climbing Salt Lake Center
Sun 02:59:47 PM 43.8867 -109.6917 220° Southwest 406 467 24,200 1,248 Climbing Salt Lake Center
Sun 03:00:49 PM 43.8014 -109.7892 220° Southwest 411 473 25,300 1,065 Climbing Salt Lake Center
Sun 03:01:51 PM 43.7017 -109.9042 220° Southwest 416 479 26,400 968 Climbing Salt Lake Center
Sun 03:02:53 PM 43.6139 -110.0047 220° Southwest 422 486 27,300 919 Climbing Salt Lake Center
Sun 03:03:55 PM 43.5114 -110.1225 219° Southwest 427 491 28,300 816 Climbing Salt Lake Center
Sun 03:04:58 PM 43.4136 -110.2328 220° Southwest 428 493 29,000 576 Climbing Salt Lake Center
Sun 03:06:00 PM 43.3239 -110.3350 219° Southwest 434 499 29,500 484 Climbing Salt Lake Center
Sun 03:07:02 PM 43.2269 -110.4439 220° Southwest 439 505 30,000 242 Climbing Salt Lake Center
Sun 03:08:04 PM 43.1169 -110.5686 219° Southwest 452 520 30,000  Level Salt Lake Center
Sun 03:09:06 PM 43.0228 -110.6736 219° Southwest 455 524 30,000  Level Salt Lake Center
Sun 03:10:09 PM 42.9108 -110.7978 219° Southwest 461 531 30,000  Level Salt Lake Center
Sun 03:11:11 PM 42.8147 -110.9050 219° Southwest 463 533 30,000  Level Salt Lake Center
Sun 03:12:13 PM 42.7189 -111.0103 219° Southwest 463 533 30,000  Level Salt Lake Center
Sun 03:13:15 PM 42.6139 -111.1256 219° Southwest 464 534 30,000  Level Salt Lake Center
Sun 03:14:17 PM 42.4956 -111.2550 215° Southwest 465 535 30,000  Level Salt Lake Center
Sun 03:15:20 PM 42.3886 -111.3556 212° Southwest 469 540 30,000  Level Salt Lake Center
Sun 03:16:22 PM 42.2775 -111.4489 212° Southwest 466 536 30,000  Level Salt Lake Center
Sun 03:17:24 PM 42.1667 -111.5419 212° Southwest 467 537 30,000  Level Salt Lake Center
Sun 03:18:26 PM 42.0561 -111.6353 212° Southwest 466 536 30,000 -960 Level Salt Lake Center
Sun 03:19:29 PM 41.9458 -111.7278 212° Southwest 464 534 28,000 -2,640 Descending Salt Lake Center
Sun 03:20:31 PM 41.8206 -111.8308 212° Southwest 455 524 24,500 -3,145 Descending Salt Lake Center
Sun 03:21:33 PM 41.7206 -111.9144 212° Southwest 427 491 21,500 -2,613 Descending Salt Lake Center
Sun 03:22:35 PM 41.6239 -111.9953 206° Southwest 413 475 19,100 -1,429 Descending Salt Lake Center
Sun 03:23:18 PM 41.5567 -112.0394 190° South 387 445 19,000 -433 Descending Salt Lake Center
Sun 03:24:12 PM 41.4597 -112.0611 190° South 370 426 18,400 -1,096 Descending Salt Lake Center
Sun 03:25:13 PM 41.3589 -112.0842 190° South 365 420 16,900 -1,525 Descending Salt Lake Center
Sun 03:26:14 PM 41.2597 -112.1067 190° South 360 414 15,300 -1,290 Descending Salt Lake Center
Sun 03:26:46 PM 41.2128 -112.1175 190° South 355 409 14,900 -1,174 Descending Salt Lake Center
Sun 03:27:46 PM 41.1169 -112.1392 179° South 350 403 13,500 -1,377 Descending Salt Lake Center
Sun 03:28:48 PM 41.0253 -112.1372 170° South 339 390 12,100 -1,200 Descending Salt Lake Center
Sun 03:29:51 PM 40.9375 -112.1175 173° South 323 372 11,000 -528 Descending Salt Lake Center
Sun 03:30:53 PM 40.8669 -112.1058 175° South 254 292 11,000 -48 Level Salt Lake Center
Sun 03:31:55 PM 40.7861 -112.0961 175° South 248 285 10,900 -677 Descending Salt Lake Center
Sun 03:32:57 PM 40.7194 -112.0878 160° South 241 277 9,600 -1,152 Descending Salt Lake Center
Sun 03:34:00 PM 40.6642 -112.0611 78° East 219 252 8,500 -1,296 Descending Salt Lake Center
Sun 03:35:02 PM 40.6750 -111.9942 North 198 228 6,900 -1,403 Descending Salt Lake Center
Sun 03:36:04 PM 40.7194 -111.9883 355° North 154 177 5,600 -1,161 Descending Salt Lake Center
Sun 03:37:06 PM 40.7667 -111.9939 355° North 145 167 4,500 -1,065 Descending Salt Lake Center

Login

Don't have an account? Register now (free) for customized features, flight alerts, and more!